createdAt,value
2023-04-21T00:00:08.364Z,18.02
2023-04-21T00:02:39.794Z,18.03
2023-04-21T00:05:14.127Z,18.04
2023-04-21T00:07:41.911Z,18.01
2023-04-21T00:10:10.383Z,17.99
2023-04-21T00:12:38.548Z,17.92
2023-04-21T00:15:06.268Z,17.93
2023-04-21T00:17:33.318Z,17.92
2023-04-21T00:20:00.250Z,17.90
2023-04-21T00:22:27.359Z,17.90
2023-04-21T00:24:54.239Z,17.90
2023-04-21T00:27:21.362Z,17.89
2023-04-21T00:29:49.330Z,17.88
2023-04-21T00:32:16.395Z,17.92
2023-04-21T00:34:43.535Z,17.86
2023-04-21T00:37:12.261Z,17.90
2023-04-21T00:39:39.908Z,17.88
2023-04-21T00:42:06.938Z,17.86
2023-04-21T00:44:35.827Z,17.85
2023-04-21T00:47:04.026Z,17.84
2023-04-21T00:49:31.095Z,17.82
2023-04-21T00:51:58.671Z,17.80
2023-04-21T00:54:28.816Z,17.78
2023-04-21T00:56:58.619Z,17.78
2023-04-21T00:59:28.269Z,17.77
2023-04-21T01:01:56.926Z,17.72
2023-04-21T01:04:24.164Z,17.76
2023-04-21T01:06:51.917Z,17.78
2023-04-21T01:09:19.315Z,17.77
2023-04-21T01:12:08.841Z,17.79
2023-04-21T01:14:37.571Z,17.77
2023-04-21T01:17:06.371Z,17.76
2023-04-21T01:19:39.492Z,17.75
2023-04-21T01:22:11.266Z,17.76
2023-04-21T01:24:42.455Z,17.68
2023-04-21T01:27:20.192Z,17.70
2023-04-21T01:29:51.687Z,17.67
2023-04-21T01:32:24.310Z,17.67
2023-04-21T01:34:53.406Z,17.69
2023-04-21T01:37:22.833Z,17.69
2023-04-21T01:39:54.523Z,17.69
2023-04-21T01:42:24.030Z,17.69
2023-04-21T01:44:53.649Z,17.69
2023-04-21T01:47:21.713Z,17.68
2023-04-21T01:49:48.704Z,17.63
2023-04-21T01:52:16.095Z,17.60
2023-04-21T01:54:43.641Z,17.59
2023-04-21T01:57:11.050Z,17.50
2023-04-21T01:59:38.233Z,17.51
2023-04-21T02:02:07.350Z,17.49
2023-04-21T02:04:34.587Z,17.50
2023-04-21T02:07:02.835Z,17.47
2023-04-21T02:09:29.954Z,17.45
2023-04-21T02:11:57.349Z,17.42
2023-04-21T02:14:25.748Z,17.42
2023-04-21T02:16:53.406Z,17.43
2023-04-21T02:19:22.380Z,17.39
2023-04-21T02:21:49.730Z,17.36
2023-04-21T02:24:16.834Z,17.33
2023-04-21T02:26:46.274Z,17.31
2023-04-21T02:29:13.473Z,17.26
2023-04-21T02:31:54.336Z,17.25
2023-04-21T02:34:26.215Z,17.24
2023-04-21T02:36:53.218Z,17.24
2023-04-21T02:39:20.459Z,17.22
2023-04-21T02:41:47.511Z,17.24
2023-04-21T02:44:14.553Z,17.25
2023-04-21T02:46:42.086Z,17.26
2023-04-21T02:49:09.732Z,17.22
2023-04-21T02:51:37.146Z,17.22
2023-04-21T02:54:04.184Z,17.19
2023-04-21T02:56:32.109Z,17.18
2023-04-21T02:58:59.053Z,17.11
2023-04-21T03:01:26.119Z,17.16
2023-04-21T03:03:53.235Z,17.15
2023-04-21T03:06:20.841Z,17.15
2023-04-21T03:08:47.850Z,17.12
2023-04-21T03:11:14.924Z,17.11
2023-04-21T03:13:41.969Z,17.09
2023-04-21T03:16:08.949Z,17.06
2023-04-21T03:18:36.475Z,17.06
2023-04-21T03:21:03.583Z,17.01
2023-04-21T03:23:30.789Z,16.98
2023-04-21T03:25:57.770Z,16.99
2023-04-21T03:28:26.313Z,16.96
2023-04-21T03:30:53.193Z,16.98
2023-04-21T03:33:20.117Z,16.99
2023-04-21T03:35:47.152Z,16.95
2023-04-21T03:38:14.084Z,16.95
2023-04-21T03:40:41.071Z,16.90
2023-04-21T03:43:08.064Z,16.90
2023-04-21T03:45:38.215Z,16.90
2023-04-21T03:48:05.652Z,16.89
2023-04-21T03:50:32.666Z,16.87
2023-04-21T03:52:59.623Z,16.84
2023-04-21T03:55:26.491Z,16.82
2023-04-21T03:57:53.550Z,16.80
2023-04-21T04:00:21.297Z,16.82
2023-04-21T04:02:48.479Z,16.79
2023-04-21T04:05:15.719Z,16.82
2023-04-21T04:07:42.772Z,16.79
2023-04-21T04:10:09.680Z,16.78
2023-04-21T04:12:36.848Z,16.77
2023-04-21T04:15:04.029Z,16.77
2023-04-21T04:17:31.055Z,16.76
2023-04-21T04:19:58.025Z,16.74
2023-04-21T04:22:24.946Z,16.71
2023-04-21T04:24:53.285Z,16.70
2023-04-21T04:27:21.773Z,16.69
2023-04-21T04:29:49.463Z,16.67
2023-04-21T04:32:16.428Z,16.66
2023-04-21T04:34:43.440Z,16.65
2023-04-21T04:37:11.377Z,16.63
2023-04-21T04:39:38.342Z,16.63
2023-04-21T04:42:11.971Z,16.62
2023-04-21T04:44:38.981Z,16.62
2023-04-21T04:47:06.282Z,16.59
2023-04-21T04:49:33.415Z,16.59
2023-04-21T04:52:02.019Z,16.58
2023-04-21T04:54:29.385Z,16.60
2023-04-21T04:56:58.018Z,16.62
2023-04-21T04:59:25.092Z,16.65
2023-04-21T05:01:52.675Z,16.65
2023-04-21T05:04:20.769Z,16.67
2023-04-21T05:06:48.190Z,16.66
2023-04-21T05:09:15.080Z,16.66
2023-04-21T05:11:42.014Z,16.70
2023-04-21T05:14:09.080Z,16.75
2023-04-21T05:16:36.064Z,16.80
2023-04-21T05:19:03.931Z,16.84
2023-04-21T05:21:31.504Z,16.85
2023-04-21T05:23:59.515Z,16.89
2023-04-21T05:26:27.773Z,16.92
2023-04-21T05:28:56.689Z,16.99
2023-04-21T05:31:24.955Z,17.04
2023-04-21T05:33:52.420Z,17.09
2023-04-21T05:36:22.254Z,17.16
2023-04-21T05:38:49.269Z,17.22
2023-04-21T05:41:16.382Z,17.26
2023-04-21T05:43:43.392Z,17.32
2023-04-21T05:46:11.278Z,17.43
2023-04-21T05:48:38.427Z,17.52
2023-04-21T05:51:12.573Z,17.55
2023-04-21T05:53:40.097Z,17.65
2023-04-21T05:56:09.410Z,17.76
2023-04-21T05:58:37.266Z,17.88
2023-04-21T06:01:05.183Z,18.03
2023-04-21T06:03:33.090Z,18.34
2023-04-21T06:06:01.459Z,18.77
2023-04-21T06:08:28.546Z,19.27
2023-04-21T06:10:55.623Z,19.35
2023-04-21T06:13:22.620Z,19.41
2023-04-21T06:15:49.664Z,19.46
2023-04-21T06:18:17.071Z,19.65
2023-04-21T06:20:51.241Z,19.90
2023-04-21T06:23:18.442Z,20.02
2023-04-21T06:25:45.458Z,20.13
2023-04-21T06:28:12.500Z,20.21
2023-04-21T06:30:39.539Z,20.30
2023-04-21T06:33:06.935Z,20.47
2023-04-21T06:35:34.210Z,20.70
2023-04-21T06:38:01.216Z,21.23
2023-04-21T06:40:28.140Z,21.95
2023-04-21T06:42:55.135Z,22.52
2023-04-21T06:45:23.272Z,23.30
2023-04-21T06:47:50.281Z,24.08
2023-04-21T06:50:17.254Z,24.83
2023-04-21T06:52:44.255Z,25.43
2023-04-21T06:55:11.546Z,25.87
2023-04-21T06:57:38.645Z,26.52
2023-04-21T07:00:06.222Z,27.17
2023-04-21T07:02:33.196Z,27.57
2023-04-21T07:05:00.136Z,28.15
2023-04-21T07:07:27.260Z,28.39
2023-04-21T07:09:54.152Z,29.02
2023-04-21T07:12:21.464Z,29.34
2023-04-21T07:14:48.417Z,29.72
2023-04-21T07:17:15.458Z,30.14
2023-04-21T07:19:42.431Z,30.24
2023-04-21T07:22:09.355Z,30.11
2023-04-21T07:24:37.877Z,29.80
2023-04-21T07:27:04.898Z,30.35
2023-04-21T07:29:31.999Z,30.06
2023-04-21T07:31:58.897Z,30.23
2023-04-21T07:34:26.031Z,30.30
2023-04-21T07:36:53.376Z,30.57
2023-04-21T07:39:20.499Z,30.22
2023-04-21T07:41:48.197Z,29.57
2023-04-21T07:44:15.159Z,29.50
2023-04-21T07:46:42.202Z,28.91
2023-04-21T07:49:09.190Z,28.24
2023-04-21T07:51:36.357Z,28.15
2023-04-21T07:54:03.377Z,27.71
2023-04-21T07:56:30.640Z,27.43
2023-04-21T07:58:57.516Z,27.02
2023-04-21T08:01:24.396Z,26.47
2023-04-21T08:03:51.584Z,26.03
2023-04-21T08:06:18.639Z,25.82
2023-04-21T08:08:45.718Z,25.68
2023-04-21T08:11:12.746Z,26.34
2023-04-21T08:13:39.661Z,26.28
2023-04-21T08:16:06.759Z,25.89
2023-04-21T08:18:33.758Z,25.58
2023-04-21T08:21:00.851Z,26.40
2023-04-21T08:23:31.769Z,26.68
2023-04-21T08:25:59.361Z,26.53
2023-04-21T08:28:26.278Z,26.23
2023-04-21T08:30:53.192Z,25.88
2023-04-21T08:33:20.182Z,25.60
2023-04-21T08:35:59.208Z,25.39
2023-04-21T08:38:29.875Z,25.08
2023-04-21T08:41:00.045Z,25.30
2023-04-21T08:43:29.094Z,25.26
2023-04-21T08:45:56.546Z,25.17
2023-04-21T08:48:25.149Z,26.00
2023-04-21T08:50:53.899Z,26.26
2023-04-21T08:53:21.007Z,26.92
2023-04-21T08:56:03.109Z,27.77
2023-04-21T08:58:37.540Z,28.45
2023-04-21T09:01:04.503Z,28.57
2023-04-21T09:03:31.903Z,28.84
2023-04-21T09:06:08.471Z,28.73
2023-04-21T09:08:44.924Z,27.87
2023-04-21T09:11:15.271Z,28.51
2023-04-21T09:13:43.447Z,29.37
2023-04-21T09:16:22.445Z,29.78
2023-04-21T09:18:51.695Z,30.09
2023-04-21T09:21:21.322Z,30.12
2023-04-21T09:23:50.308Z,30.33
2023-04-21T09:26:22.762Z,30.68
2023-04-21T09:28:53.272Z,30.83
2023-04-21T09:31:24.920Z,30.39
2023-04-21T09:34:00.350Z,30.61
2023-04-21T09:36:30.712Z,30.25
2023-04-21T09:39:29.057Z,29.78
2023-04-21T09:41:50.158Z,29.54
2023-04-21T09:44:18.408Z,29.33
2023-04-21T09:46:49.880Z,29.15
2023-04-21T09:49:18.545Z,28.94
2023-04-21T09:54:29.020Z,28.00
2023-04-21T09:57:03.834Z,27.92
2023-04-21T09:59:40.854Z,27.28
2023-04-21T10:02:09.931Z,27.15
2023-04-21T10:04:38.383Z,26.94
2023-04-21T10:07:06.754Z,26.82
2023-04-21T10:10:01.048Z,26.74
2023-04-21T10:12:28.600Z,26.60
2023-04-21T10:14:57.078Z,25.96
2023-04-21T10:17:26.215Z,25.84
2023-04-21T10:19:57.368Z,25.51
2023-04-21T10:22:33.337Z,25.27
2023-04-21T10:25:04.796Z,24.99
2023-04-21T10:27:42.074Z,24.53
2023-04-21T10:30:19.183Z,24.88
2023-04-21T10:32:46.839Z,25.12
2023-04-21T10:35:22.513Z,25.24
2023-04-21T10:37:52.169Z,24.92
2023-04-21T10:40:43.114Z,24.87
2023-04-21T10:43:51.146Z,23.76
2023-04-21T10:46:38.417Z,23.93
2023-04-21T10:49:13.178Z,24.11
2023-04-21T10:51:58.532Z,24.47
2023-04-21T10:54:50.071Z,24.25
2023-04-21T10:57:18.691Z,24.35
2023-04-21T10:59:47.284Z,24.26
2023-04-21T11:02:16.033Z,24.21
2023-04-21T11:04:48.767Z,24.15
2023-04-21T11:07:26.123Z,24.01
2023-04-21T11:10:07.813Z,24.08
2023-04-21T11:12:38.461Z,24.13
2023-04-21T11:15:08.187Z,23.84
2023-04-21T11:17:36.461Z,23.66
2023-04-21T11:20:08.152Z,23.55
2023-04-21T11:22:37.390Z,23.68
2023-04-21T11:25:04.708Z,23.58
2023-04-21T11:27:31.651Z,23.75
2023-04-21T11:29:58.749Z,23.84
2023-04-21T11:32:25.908Z,23.79
2023-04-21T11:34:52.893Z,23.46
2023-04-21T11:37:30.111Z,23.35
2023-04-21T11:40:01.138Z,23.38
2023-04-21T11:42:28.675Z,23.22
2023-04-21T11:44:56.823Z,23.08
2023-04-21T11:47:26.614Z,22.86
2023-04-21T11:49:56.388Z,22.80
2023-04-21T11:52:33.907Z,22.80
2023-04-21T11:55:03.592Z,22.98
2023-04-21T11:57:32.699Z,22.89
2023-04-21T12:00:06.699Z,23.09
2023-04-21T12:02:34.448Z,23.09
2023-04-21T12:05:05.089Z,23.04
2023-04-21T12:07:42.081Z,23.13
2023-04-21T12:10:22.072Z,23.13
2023-04-21T12:12:49.198Z,23.09
2023-04-21T12:15:21.712Z,23.04
2023-04-21T12:17:51.439Z,22.97
2023-04-21T12:20:20.608Z,22.98
2023-04-21T12:22:48.611Z,23.11
2023-04-21T12:25:16.051Z,23.29
2023-04-21T12:27:53.301Z,23.33
2023-04-21T12:30:21.218Z,23.34
2023-04-21T12:32:48.469Z,23.28
2023-04-21T12:35:16.019Z,23.23
2023-04-21T12:37:43.152Z,22.84
2023-04-21T12:40:10.749Z,22.82
2023-04-21T12:42:38.565Z,22.57
2023-04-21T12:45:06.623Z,22.52
2023-04-21T12:47:34.989Z,22.25
2023-04-21T12:50:01.999Z,22.23
2023-04-21T12:52:29.232Z,22.11
2023-04-21T12:54:56.228Z,22.20
2023-04-21T12:57:23.161Z,22.05
2023-04-21T12:59:50.364Z,22.12
2023-04-21T13:02:17.529Z,22.07
2023-04-21T13:04:44.689Z,22.22
2023-04-21T13:07:11.681Z,22.37
2023-04-21T13:09:39.042Z,22.48
2023-04-21T13:12:06.062Z,22.70
2023-04-21T13:14:33.257Z,22.87
2023-04-21T13:17:00.358Z,22.90
2023-04-21T13:19:28.839Z,22.93
2023-04-21T13:21:56.537Z,22.93
2023-04-21T13:24:23.540Z,22.93
2023-04-21T13:26:50.559Z,22.78
2023-04-21T13:29:17.693Z,22.67
2023-04-21T13:31:44.685Z,22.54
2023-04-21T13:34:11.845Z,22.40
2023-04-21T13:36:39.183Z,22.38
2023-04-21T13:39:09.666Z,22.44
2023-04-21T13:41:36.708Z,22.43
2023-04-21T13:44:03.689Z,22.47
2023-04-21T13:46:31.132Z,22.39
2023-04-21T13:48:59.645Z,22.35
2023-04-21T13:51:26.836Z,22.43
2023-04-21T13:53:53.804Z,22.33
2023-04-21T13:56:20.945Z,22.28
2023-04-21T13:58:47.978Z,22.39
2023-04-21T14:01:15.148Z,22.23
2023-04-21T14:03:42.391Z,22.13
2023-04-21T14:06:09.553Z,22.07
2023-04-21T14:08:36.552Z,21.88
2023-04-21T14:11:04.241Z,21.91
2023-04-21T14:13:39.575Z,22.06
2023-04-21T14:16:09.591Z,22.09
2023-04-21T14:18:38.450Z,22.21
2023-04-21T14:21:05.579Z,22.29
2023-04-21T14:23:32.583Z,22.27
2023-04-21T14:25:59.577Z,22.34
2023-04-21T14:28:26.870Z,22.17
2023-04-21T14:30:53.837Z,22.12
2023-04-21T14:33:20.996Z,22.17
2023-04-21T14:35:48.103Z,22.20
2023-04-21T14:38:15.060Z,22.28
2023-04-21T14:40:42.136Z,22.21
2023-04-21T14:43:11.522Z,22.21
2023-04-21T14:45:38.790Z,22.19
2023-04-21T14:48:06.134Z,22.12
2023-04-21T14:50:33.337Z,21.95
2023-04-21T14:53:00.554Z,22.06
2023-04-21T14:55:28.108Z,21.94
2023-04-21T14:57:55.103Z,22.00
2023-04-21T15:00:23.754Z,21.93
2023-04-21T15:02:50.710Z,21.94
2023-04-21T15:05:18.900Z,21.98
2023-04-21T15:07:45.908Z,21.92
2023-04-21T15:10:13.486Z,21.96
2023-04-21T15:12:41.903Z,21.84
2023-04-21T15:15:09.221Z,21.91
2023-04-21T15:17:36.128Z,21.90
2023-04-21T15:20:03.695Z,21.91
2023-04-21T15:22:30.939Z,21.82
2023-04-21T15:24:57.976Z,21.84
2023-04-21T15:27:25.112Z,21.72
2023-04-21T15:29:52.129Z,21.77
2023-04-21T15:32:19.150Z,21.67
2023-04-21T15:34:46.218Z,21.57
2023-04-21T15:37:14.568Z,21.62
2023-04-21T15:39:41.750Z,21.66
2023-04-21T15:42:09.681Z,21.73
2023-04-21T15:44:39.206Z,21.79
2023-04-21T15:47:06.654Z,21.80
2023-04-21T15:49:33.830Z,21.83
2023-04-21T15:52:03.467Z,21.71
2023-04-21T15:54:31.415Z,21.70
2023-04-21T15:56:58.749Z,21.75
2023-04-21T15:59:26.295Z,21.77
2023-04-21T16:01:53.645Z,21.76
2023-04-21T16:04:20.768Z,21.69
2023-04-21T16:06:47.874Z,21.72
2023-04-21T16:09:14.816Z,21.69
2023-04-21T16:11:42.541Z,21.65
2023-04-21T16:14:09.611Z,21.68
2023-04-21T16:16:39.495Z,21.63
2023-04-21T16:19:06.561Z,21.71
2023-04-21T16:21:33.532Z,21.76
2023-04-21T16:24:00.675Z,21.79
2023-04-21T16:26:27.724Z,21.72
2023-04-21T16:28:55.742Z,21.77
2023-04-21T16:31:22.793Z,21.71
2023-04-21T16:33:51.436Z,21.67
2023-04-21T16:36:18.684Z,21.66
2023-04-21T16:38:45.725Z,21.67
2023-04-21T16:41:12.862Z,21.73
2023-04-21T16:43:39.993Z,21.70
2023-04-21T16:46:06.957Z,21.70
2023-04-21T16:48:34.063Z,21.72
2023-04-21T16:51:01.155Z,21.70
2023-04-21T16:53:28.298Z,21.69
2023-04-21T16:55:55.464Z,21.65
2023-04-21T16:58:24.406Z,21.64
2023-04-21T17:00:51.692Z,21.55
2023-04-21T17:03:18.964Z,21.57
2023-04-21T17:05:46.231Z,21.57
2023-04-21T17:08:13.247Z,21.52
2023-04-21T17:10:40.210Z,21.52
2023-04-21T17:13:07.707Z,21.59
2023-04-21T17:15:34.715Z,21.64
2023-04-21T17:18:01.719Z,21.65
2023-04-21T17:20:29.705Z,21.65
2023-04-21T17:22:56.862Z,21.60
2023-04-21T17:25:23.895Z,21.49
2023-04-21T17:27:50.928Z,21.48
2023-04-21T17:30:19.101Z,21.44
2023-04-21T17:32:46.078Z,21.40
2023-04-21T17:35:12.996Z,21.37
2023-04-21T17:37:40.079Z,21.35
2023-04-21T17:40:09.699Z,21.34
2023-04-21T17:42:36.952Z,21.31
2023-04-21T17:45:05.964Z,21.27
2023-04-21T17:47:33.634Z,21.19
2023-04-21T17:50:00.648Z,21.14
2023-04-21T17:52:51.028Z,21.05
2023-04-21T17:55:18.042Z,20.94
2023-04-21T17:57:45.556Z,20.89
2023-04-21T18:00:13.321Z,20.85
2023-04-21T18:02:40.779Z,20.81
2023-04-21T18:05:08.103Z,20.79
2023-04-21T18:07:35.414Z,20.75
2023-04-21T18:10:02.636Z,20.70
2023-04-21T18:12:29.607Z,20.67
2023-04-21T18:14:56.721Z,20.70
2023-04-21T18:17:23.716Z,20.59
2023-04-21T18:19:50.625Z,20.53
2023-04-21T18:22:17.539Z,20.54
2023-04-21T18:24:45.241Z,20.48
2023-04-21T18:27:12.557Z,20.40
2023-04-21T18:29:39.661Z,20.38
2023-04-21T18:32:06.693Z,20.36
2023-04-21T18:34:33.770Z,20.25
2023-04-21T18:37:00.729Z,20.22
2023-04-21T18:39:27.777Z,20.19
2023-04-21T18:41:54.877Z,20.17
2023-04-21T18:44:21.788Z,20.15
2023-04-21T18:46:48.872Z,20.14
2023-04-21T18:49:15.764Z,20.13
2023-04-21T18:51:42.742Z,20.10
2023-04-21T18:54:09.838Z,20.08
2023-04-21T18:56:37.263Z,20.09
2023-04-21T18:59:04.659Z,20.06
2023-04-21T19:01:31.774Z,20.01
2023-04-21T19:03:59.623Z,20.02
2023-04-21T19:06:27.962Z,20.04
2023-04-21T19:08:55.056Z,20.04
2023-04-21T19:11:22.676Z,20.04
2023-04-21T19:13:49.771Z,20.00
2023-04-21T19:16:16.810Z,19.98
2023-04-21T19:18:43.908Z,19.90
2023-04-21T19:21:13.588Z,19.89
2023-04-21T19:23:41.838Z,19.85
2023-04-21T19:26:09.914Z,19.83
2023-04-21T19:28:36.896Z,19.82
2023-04-21T19:31:04.456Z,19.78
2023-04-21T19:33:31.510Z,19.77
2023-04-21T19:35:59.158Z,19.75
2023-04-21T19:38:26.687Z,19.72
2023-04-21T19:40:54.942Z,19.73
2023-04-21T19:43:22.790Z,19.75
2023-04-21T19:45:49.988Z,19.74
2023-04-21T19:48:17.594Z,19.68
2023-04-21T19:50:44.640Z,19.68
2023-04-21T19:53:15.050Z,19.67
2023-04-21T19:55:42.847Z,19.56
2023-04-21T19:58:10.226Z,19.39
2023-04-21T20:00:37.204Z,19.34
2023-04-21T20:03:06.748Z,19.26
2023-04-21T20:05:33.942Z,19.20
2023-04-21T20:08:01.224Z,19.22
2023-04-21T20:10:28.280Z,19.18
2023-04-21T20:12:55.284Z,18.88
2023-04-21T20:15:23.109Z,18.83
2023-04-21T20:17:50.140Z,18.75
2023-04-21T20:20:17.706Z,18.80
2023-04-21T20:22:44.796Z,18.86
2023-04-21T20:25:12.959Z,18.88
2023-04-21T20:27:40.059Z,18.80
2023-04-21T20:30:08.076Z,18.81
2023-04-21T20:32:35.186Z,18.59
2023-04-21T20:35:02.349Z,18.50
2023-04-21T20:37:29.790Z,18.55
2023-04-21T20:39:57.265Z,18.60
2023-04-21T20:42:24.309Z,18.67
2023-04-21T20:44:51.292Z,18.72
2023-04-21T20:47:18.461Z,18.80
2023-04-21T20:49:47.740Z,18.85
2023-04-21T20:52:17.504Z,18.88
2023-04-21T20:54:44.503Z,18.91
2023-04-21T20:57:12.289Z,18.88
2023-04-21T20:59:39.680Z,18.86
2023-04-21T21:02:07.627Z,18.84
2023-04-21T21:04:35.112Z,18.82
2023-04-21T21:07:03.995Z,18.85
2023-04-21T21:09:31.488Z,18.90
2023-04-21T21:11:58.758Z,18.88
2023-04-21T21:14:27.763Z,18.85
2023-04-21T21:16:55.458Z,18.83
2023-04-21T21:19:25.747Z,18.81
2023-04-21T21:21:52.961Z,18.72
2023-04-21T21:24:20.170Z,18.69
2023-04-21T21:26:47.343Z,18.60
2023-04-21T21:29:14.577Z,18.46
2023-04-21T21:31:41.754Z,18.39
2023-04-21T21:34:08.979Z,18.39
2023-04-21T21:36:36.238Z,18.37
2023-04-21T21:39:03.592Z,18.29
2023-04-21T21:41:30.921Z,18.24
2023-04-21T21:43:57.877Z,18.29
2023-04-21T21:46:24.900Z,18.29
2023-04-21T21:48:51.975Z,18.27
2023-04-21T21:51:20.230Z,18.30
2023-04-21T21:53:47.330Z,18.34
2023-04-21T21:56:14.650Z,18.42
2023-04-21T21:58:41.989Z,18.49
2023-04-21T22:01:10.219Z,18.47
2023-04-21T22:03:40.702Z,18.39
2023-04-21T22:06:08.288Z,18.32
2023-04-21T22:08:35.435Z,18.39
2023-04-21T22:11:03.827Z,18.45
2023-04-21T22:13:30.839Z,18.50
2023-04-21T22:15:57.807Z,18.54
2023-04-21T22:18:24.875Z,18.55
2023-04-21T22:20:52.331Z,18.56
2023-04-21T22:23:21.467Z,18.57
2023-04-21T22:25:48.534Z,18.53
2023-04-21T22:28:15.487Z,18.50
2023-04-21T22:30:43.056Z,18.50
2023-04-21T22:33:10.372Z,18.47
2023-04-21T22:35:37.980Z,18.43
2023-04-21T22:38:05.709Z,18.37
2023-04-21T22:40:36.356Z,18.35
2023-04-21T22:43:03.932Z,18.34
2023-04-21T22:45:30.870Z,18.35
2023-04-21T22:47:58.008Z,18.38
2023-04-21T22:50:25.704Z,18.41
2023-04-21T22:52:52.882Z,18.43
2023-04-21T22:55:22.982Z,18.43
2023-04-21T22:57:50.173Z,18.37
2023-04-21T23:00:17.414Z,18.40
2023-04-21T23:02:44.442Z,18.39
2023-04-21T23:05:11.545Z,18.38
2023-04-21T23:07:38.697Z,18.40
2023-04-21T23:10:06.004Z,18.38
2023-04-21T23:12:33.481Z,18.36
2023-04-21T23:15:00.443Z,18.36
2023-04-21T23:17:27.424Z,18.35
2023-04-21T23:19:55.379Z,18.26
2023-04-21T23:22:25.400Z,18.23
2023-04-21T23:24:53.036Z,18.22
2023-04-21T23:27:20.024Z,18.19
2023-04-21T23:29:47.064Z,18.16
2023-04-21T23:32:14.174Z,18.12
2023-04-21T23:34:41.231Z,18.05
2023-04-21T23:37:08.288Z,18.04
2023-04-21T23:39:35.461Z,18.08
2023-04-21T23:42:04.465Z,18.09
2023-04-21T23:44:31.564Z,18.08
2023-04-21T23:46:58.474Z,18.07
2023-04-21T23:49:25.414Z,18.03
2023-04-21T23:51:52.402Z,18.01
2023-04-21T23:54:19.492Z,18.00
2023-04-21T23:56:46.365Z,17.98
2023-04-21T23:59:13.580Z,18.01
